Terminal Aerodrome Forecast
Issued by NWS Charleston, WV

Current Version | Previous Version | Graphics & Text | Print | Product List | Glossary On
Versions: 1 2 3 4 5 6 7 8 9 10 11 12 13 14 15 16 17 18 19 20 21
000
FTUS41 KRLX 191120
TAFPKB
TAF
KPKB 191120Z 1912/2012 27010G23KT P6SM -SHRA OVC015
     FM191600 32010G18KT P6SM OVC025
     FM192000 32010G19KT P6SM BKN040
     FM200100 32006KT P6SM SCT070=

USA.gov is the U.S. government's official web portal to all federal, state and local government web resources and services.